Time;durP1;ratioP1;P1;durP2;ratioP2;P2;SDS_P1;SDS_P2;PMS_P1;PMS_P2;Temp;Humidity;BMP_temperature;BMP_pressure;BME280_temperature;BME280_humidity;BME280_pressure;Samples;Min_cycle;Max_cycle;Signal;HPM_P1;HPM_P2
2023/03/03 00:03:02;;;;;;;2.15;1.95;;;20.20;33.50;;;;;;6160070;28;20051;-52
2023/03/03 00:06:04;;;;;;;1.73;1.55;;;20.40;33.60;;;;;;6158853;28;20053;-54
2023/03/03 00:09:06;;;;;;;1.70;1.60;;;20.50;33.60;;;;;;6153480;29;20050;-53
2023/03/03 00:12:20;;;;;;;2.45;2.03;;;20.20;33.50;;;;;;6153998;28;20051;-51
2023/03/03 00:15:25;;;;;;;2.00;1.80;;;20.50;33.70;;;;;;6154605;29;20047;-54
2023/03/03 00:18:32;;;;;;;1.92;1.70;;;20.40;33.60;;;;;;6158188;29;20050;-54
2023/03/03 00:21:40;;;;;;;2.10;1.60;;;20.40;33.70;;;;;;6138787;29;20043;-54
2023/03/03 00:24:42;;;;;;;1.90;1.70;;;20.20;34.20;;;;;;6137199;29;20058;-53
2023/03/03 00:27:43;;;;;;;;;;;20.00;33.50;;;;;;6155463;28;20495;-53
2023/03/03 00:30:45;;;;;;;1.58;1.38;;;20.30;33.90;;;;;;6158156;28;19941;-53
2023/03/03 00:33:50;;;;;;;1.98;1.50;;;20.50;33.90;;;;;;6155957;28;20054;-54
2023/03/03 00:36:55;;;;;;;1.92;1.50;;;20.50;33.90;;;;;;6154586;29;20080;-53
2023/03/03 00:40:09;;;;;;;1.88;1.63;;;20.40;33.90;;;;;;6152448;29;20047;-53
2023/03/03 00:43:17;;;;;;;1.75;1.60;;;20.50;33.90;;;;;;6152368;29;20116;-54
2023/03/03 00:46:22;;;;;;;2.33;2.00;;;20.20;33.70;;;;;;6154776;28;20065;-53
2023/03/03 00:49:26;;;;;;;1.60;1.50;;;20.20;33.80;;;;;;6154349;28;20129;-54
2023/03/03 00:52:29;;;;;;;2.08;1.48;;;20.40;33.90;;;;;;6152890;29;20043;-54
2023/03/03 00:55:32;;;;;;;1.90;1.70;;;20.20;33.80;;;;;;6154640;29;20043;-54
2023/03/03 00:58:33;;;;;;;1.90;1.60;;;20.50;34.00;;;;;;6152336;29;20048;-53
2023/03/03 01:01:37;;;;;;;2.10;1.70;;;20.10;33.80;;;;;;6151025;28;20496;-53
2023/03/03 01:04:40;;;;;;;1.58;1.30;;;20.40;34.00;;;;;;6152038;28;20079;-52
2023/03/03 01:07:41;;;;;;;1.65;1.48;;;20.40;34.00;;;;;;6154030;28;20046;-53
2023/03/03 01:10:44;;;;;;;;;;;20.10;33.90;;;;;;6156861;28;20047;-54
2023/03/03 01:13:48;;;;;;;1.65;1.48;;;20.30;34.00;;;;;;6158015;28;19926;-50
2023/03/03 01:16:50;;;;;;;1.60;1.50;;;20.40;33.90;;;;;;6163964;29;20051;-52
2023/03/03 01:19:53;;;;;;;1.55;1.23;;;20.20;33.90;;;;;;6161338;28;20043;-52
2023/03/03 01:22:55;;;;;;;1.98;1.52;;;20.40;34.00;;;;;;6164114;28;20043;-52
2023/03/03 01:25:57;;;;;;;1.58;1.48;;;20.30;33.90;;;;;;6164156;28;20401;-53
2023/03/03 01:28:58;;;;;;;1.63;1.52;;;20.00;33.80;;;;;;6162498;28;20051;-52
2023/03/03 01:32:00;;;;;;;1.58;1.40;;;20.40;34.00;;;;;;6162252;29;20043;-53
2023/03/03 01:35:02;;;;;;;1.60;1.45;;;20.20;33.90;;;;;;6159513;29;20044;-54
2023/03/03 01:38:04;;;;;;;1.77;1.60;;;20.10;33.90;;;;;;6164132;28;20039;-54
2023/03/03 01:41:05;;;;;;;1.20;1.10;;;20.20;33.90;;;;;;6159802;28;20376;-52
2023/03/03 01:44:13;;;;;;;1.85;1.45;;;20.30;33.90;;;;;;6158816;29;20051;-52
2023/03/03 01:47:18;;;;;;;2.00;1.40;;;20.10;33.70;;;;;;6157878;29;20043;-52
2023/03/03 01:50:30;;;;;;;1.75;1.55;;;20.40;34.00;;;;;;6159583;29;20054;-51
2023/03/03 01:53:36;;;;;;;1.15;1.05;;;20.30;33.90;;;;;;6159058;29;20071;-52
2023/03/03 01:56:37;;;;;;;1.83;1.23;;;20.30;33.90;;;;;;6157326;29;20491;-51
2023/03/03 01:59:44;;;;;;;1.90;1.50;;;20.00;33.70;;;;;;6156966;28;20047;-51
2023/03/03 02:02:46;;;;;;;1.40;1.27;;;20.10;33.70;;;;;;6157963;28;20110;-51
2023/03/03 02:05:48;;;;;;;1.50;1.25;;;20.20;33.70;;;;;;6158243;28;20047;-52
2023/03/03 02:08:54;;;;;;;1.60;1.38;;;20.30;33.80;;;;;;6155656;28;20054;-51
2023/03/03 02:11:59;;;;;;;1.73;1.33;;;20.00;33.60;;;;;;6155211;28;20046;-51
2023/03/03 02:15:01;;;;;;;2.05;1.50;;;20.10;33.70;;;;;;6158234;28;20043;-52
2023/03/03 02:18:05;;;;;;;1.30;1.20;;;20.30;33.80;;;;;;6160992;29;20070;-52
2023/03/03 02:21:09;;;;;;;1.92;1.30;;;20.30;33.70;;;;;;6162886;28;20419;-52
2023/03/03 02:24:21;;;;;;;1.35;1.13;;;20.20;33.70;;;;;;6165569;29;20062;-50
2023/03/03 02:27:23;;;;;;;1.73;1.08;;;20.30;33.70;;;;;;6169721;28;20051;-52
2023/03/03 02:30:26;;;;;;;1.88;1.40;;;20.40;33.90;;;;;;6164468;28;20035;-51
2023/03/03 02:33:28;;;;;;;1.33;1.20;;;20.40;33.80;;;;;;6169143;29;20046;-49
2023/03/03 02:36:32;;;;;;;1.38;1.08;;;19.90;33.60;;;;;;6170713;28;20040;-49
2023/03/03 02:39:33;;;;;;;1.38;1.17;;;20.00;33.60;;;;;;6169727;29;20039;-50
2023/03/03 02:42:36;;;;;;;1.95;1.33;;;19.90;33.50;;;;;;6170354;28;20051;-48
2023/03/03 02:45:43;;;;;;;1.45;1.15;;;20.00;33.60;;;;;;6170085;28;20125;-51
2023/03/03 02:48:44;;;;;;;1.50;1.40;;;20.30;33.70;;;;;;6169424;28;20062;-52
2023/03/03 02:51:46;;;;;;;1.42;1.10;;;20.10;33.60;;;;;;6169430;28;20385;-51
2023/03/03 02:54:47;;;;;;;1.48;1.20;;;20.10;33.60;;;;;;6168896;29;20079;-50
2023/03/03 02:57:49;;;;;;;;;;;20.00;33.60;;;;;;6170775;28;20099;-51
2023/03/03 03:00:51;;;;;;;;;;;20.20;33.90;;;;;;6171149;28;19930;-49
2023/03/03 03:03:58;;;;;;;1.33;1.20;;;20.30;33.90;;;;;;6168411;28;19929;-50
2023/03/03 03:07:03;;;;;;;1.67;1.33;;;20.30;33.70;;;;;;6166478;29;20401;-51
2023/03/03 03:10:07;;;;;;;1.33;1.23;;;20.10;33.70;;;;;;6161327;28;20054;-52
2023/03/03 03:13:17;;;;;;;1.60;1.17;;;20.20;33.70;;;;;;6163868;28;20059;-52
2023/03/03 03:16:19;;;;;;;1.63;1.30;;;20.10;33.70;;;;;;6169164;28;20049;-49
2023/03/03 03:19:21;;;;;;;1.40;1.30;;;20.20;33.70;;;;;;6169533;28;20067;-48
2023/03/03 03:22:22;;;;;;;1.45;1.10;;;20.20;33.80;;;;;;6169809;28;20054;-51
2023/03/03 03:25:24;;;;;;;;;;;19.90;33.60;;;;;;6169901;28;20043;-50
2023/03/03 03:28:26;;;;;;;2.50;1.52;;;20.10;33.90;;;;;;6169480;28;19977;-48
2023/03/03 03:31:28;;;;;;;1.83;1.25;;;20.10;33.70;;;;;;6169949;28;20043;-49
2023/03/03 03:34:32;;;;;;;;;;;20.20;33.80;;;;;;6170666;28;20047;-50
2023/03/03 03:37:34;;;;;;;1.10;0.93;;;19.80;33.70;;;;;;6170096;28;19922;-50
2023/03/03 03:40:35;;;;;;;;;;;20.10;33.70;;;;;;6169973;28;20134;-49
2023/03/03 03:43:39;;;;;;;1.65;1.50;;;20.30;34.00;;;;;;6169657;28;19958;-48
2023/03/03 03:46:40;;;;;;;1.75;1.20;;;20.10;33.70;;;;;;6169064;28;20095;-51
2023/03/03 03:49:42;;;;;;;1.67;1.40;;;19.90;33.60;;;;;;6169765;29;20035;-52
2023/03/03 03:52:45;;;;;;;1.77;1.30;;;19.90;33.60;;;;;;6169286;28;20059;-50
2023/03/03 03:55:47;;;;;;;1.52;1.30;;;20.10;33.60;;;;;;6169779;28;20046;-50
2023/03/03 03:58:49;;;;;;;1.90;1.20;;;20.20;33.80;;;;;;6169770;28;20042;-50
2023/03/03 04:01:51;;;;;;;1.45;1.35;;;20.00;33.70;;;;;;6169179;28;20043;-50
2023/03/03 04:04:55;;;;;;;1.45;1.30;;;20.00;33.60;;;;;;6168277;28;20059;-51
2023/03/03 04:07:56;;;;;;;;;;;20.20;33.70;;;;;;6168283;28;20047;-49
2023/03/03 04:10:58;;;;;;;1.83;1.38;;;20.30;34.00;;;;;;6168237;28;19923;-51
2023/03/03 04:14:02;;;;;;;1.92;1.65;;;19.90;33.60;;;;;;6168574;28;20051;-52
2023/03/03 04:17:03;;;;;;;1.60;1.20;;;19.90;33.60;;;;;;6167766;28;20118;-50
2023/03/03 04:20:07;;;;;;;2.15;1.58;;;19.90;33.60;;;;;;6167777;28;20047;-51
2023/03/03 04:23:09;;;;;;;1.52;1.25;;;20.20;33.70;;;;;;6167815;28;20044;-50
2023/03/03 04:26:12;;;;;;;1.30;1.20;;;20.20;33.70;;;;;;6168261;28;20051;-50
2023/03/03 04:29:14;;;;;;;1.90;1.40;;;20.10;33.70;;;;;;6167834;28;20074;-51
2023/03/03 04:32:18;;;;;;;2.15;1.70;;;20.20;33.80;;;;;;6166709;28;20058;-51
2023/03/03 04:35:21;;;;;;;1.60;1.50;;;19.90;33.60;;;;;;6167235;28;20170;-49
2023/03/03 04:38:22;;;;;;;1.95;1.35;;;20.20;33.80;;;;;;6166071;28;20043;-49
2023/03/03 04:41:25;;;;;;;1.52;1.27;;;20.10;33.70;;;;;;6149973;29;20092;-51
2023/03/03 04:44:28;;;;;;;1.45;1.35;;;19.80;33.60;;;;;;6167121;28;20062;-51
2023/03/03 04:47:31;;;;;;;1.75;1.42;;;20.20;33.80;;;;;;6166822;28;20039;-52
2023/03/03 04:50:33;;;;;;;2.17;1.60;;;19.90;33.60;;;;;;6166039;29;20043;-51
2023/03/03 04:53:37;;;;;;;1.80;1.60;;;20.20;33.90;;;;;;6167378;28;20055;-51
2023/03/03 04:56:40;;;;;;;1.50;1.10;;;20.20;33.80;;;;;;6166983;28;20134;-51
2023/03/03 04:59:43;;;;;;;1.50;1.40;;;20.00;33.70;;;;;;6166789;28;20043;-51
2023/03/03 05:02:47;;;;;;;1.35;1.25;;;20.10;33.80;;;;;;6167544;28;20120;-52
2023/03/03 05:05:51;;;;;;;1.67;1.50;;;20.20;33.80;;;;;;6166753;28;20095;-47
2023/03/03 05:08:52;;;;;;;1.55;1.35;;;20.10;33.80;;;;;;6167102;29;20043;-50
2023/03/03 05:11:54;;;;;;;2.00;1.80;;;19.90;33.70;;;;;;6166462;28;20043;-52
2023/03/03 05:14:57;;;;;;;2.95;2.00;;;20.10;33.80;;;;;;6165857;28;20055;-52
2023/03/03 05:17:59;;;;;;;1.83;1.63;;;20.20;33.80;;;;;;6166442;29;20047;-52
2023/03/03 05:21:00;;;;;;;2.60;1.90;;;20.10;33.80;;;;;;6166852;29;20043;-49
2023/03/03 05:24:01;;;;;;;2.05;1.55;;;19.90;33.60;;;;;;6166794;29;20435;-52
2023/03/03 05:27:03;;;;;;;1.63;1.40;;;19.80;33.60;;;;;;6167332;29;20070;-48
2023/03/03 05:30:06;;;;;;;1.90;1.63;;;19.80;33.60;;;;;;6166651;28;20054;-52
2023/03/03 05:33:09;;;;;;;2.40;1.92;;;20.10;33.70;;;;;;6166356;29;20047;-49
2023/03/03 05:36:11;;;;;;;2.30;1.88;;;20.10;33.70;;;;;;6150751;29;20047;-51
2023/03/03 05:39:13;;;;;;;2.00;1.80;;;19.80;33.60;;;;;;6166607;28;20047;-51
2023/03/03 05:42:15;;;;;;;;;;;19.90;33.70;;;;;;6167156;28;20385;-51
2023/03/03 05:45:19;;;;;;;2.15;1.85;;;19.70;33.70;;;;;;6165815;28;19931;-51
2023/03/03 05:48:20;;;;;;;2.60;2.20;;;20.00;33.70;;;;;;6166876;28;20072;-51
2023/03/03 05:51:24;;;;;;;2.67;2.20;;;19.70;33.70;;;;;;6170301;28;20566;-52
2023/03/03 05:54:26;;;;;;;;;;;19.70;33.60;;;;;;6170933;28;20047;-50
2023/03/03 05:57:27;;;;;;;2.65;2.45;;;19.70;33.80;;;;;;6169902;28;19934;-49
2023/03/03 06:00:29;;;;;;;2.45;1.98;;;20.00;33.90;;;;;;6172639;28;20050;-52
2023/03/03 06:03:31;;;;;;;2.80;2.22;;;20.00;34.00;;;;;;6172921;28;20055;-52
2023/03/03 06:06:32;;;;;;;2.95;2.53;;;19.90;34.00;;;;;;6172533;28;20059;-50
2023/03/03 06:09:33;;;;;;;3.40;2.58;;;20.00;34.10;;;;;;6173288;28;20047;-51
2023/03/03 06:12:36;;;;;;;;;;;19.80;34.00;;;;;;6172346;28;20058;-51
2023/03/03 06:15:39;;;;;;;2.83;2.40;;;20.10;34.30;;;;;;6171634;28;19965;-51
2023/03/03 06:18:41;;;;;;;3.65;2.78;;;20.10;34.20;;;;;;6172129;28;20421;-51
2023/03/03 06:21:47;;;;;;;3.00;2.47;;;19.90;34.10;;;;;;6171177;29;20098;-52
2023/03/03 06:24:51;;;;;;;2.58;2.38;;;20.10;34.30;;;;;;6172882;28;20054;-50
2023/03/03 06:27:53;;;;;;;2.92;2.55;;;20.00;34.20;;;;;;6170668;29;20039;-52
2023/03/03 06:31:00;;;;;;;2.70;2.30;;;20.20;34.30;;;;;;6171460;29;20054;-51
2023/03/03 06:34:02;;;;;;;2.85;2.38;;;20.00;34.10;;;;;;6174145;28;20110;-49
2023/03/03 06:37:03;;;;;;;;;;;19.80;34.10;;;;;;6172498;28;20076;-52
2023/03/03 06:40:06;;;;;;;;;;;19.60;34.10;;;;;;6173470;28;19933;-51
2023/03/03 06:43:08;;;;;;;3.15;2.75;;;19.90;34.30;;;;;;6171508;29;19927;-51
2023/03/03 06:46:10;;;;;;;3.90;3.28;;;20.00;34.20;;;;;;6172246;29;20043;-54
2023/03/03 06:49:14;;;;;;;3.35;2.80;;;19.90;34.20;;;;;;6171203;28;20046;-54
2023/03/03 06:52:19;;;;;;;3.78;3.15;;;20.00;34.30;;;;;;6169585;29;20043;-53
2023/03/03 06:55:22;;;;;;;3.50;2.85;;;20.00;34.20;;;;;;6163145;29;20082;-54
2023/03/03 06:58:28;;;;;;;3.78;2.90;;;19.90;34.20;;;;;;6157093;28;20047;-53
2023/03/03 07:01:36;;;;;;;4.45;3.35;;;19.70;34.10;;;;;;6158540;28;20495;-53
2023/03/03 07:04:38;;;;;;;3.45;2.95;;;19.60;34.10;;;;;;6160809;29;20046;-51
2023/03/03 07:07:39;;;;;;;3.75;2.78;;;20.00;34.30;;;;;;6164799;29;20044;-52
2023/03/03 07:10:41;;;;;;;;;;;19.60;34.10;;;;;;6169133;28;20035;-52
2023/03/03 07:13:46;;;;;;;2.83;2.50;;;20.40;34.70;;;;;;6167939;28;19930;-49
2023/03/03 07:16:55;;;;;;;3.88;3.15;;;19.70;34.10;;;;;;6167839;28;20043;-50
2023/03/03 07:20:00;;;;;;;2.78;2.35;;;19.80;34.10;;;;;;6150331;29;20047;-53
2023/03/03 07:23:14;;;;;;;3.10;2.80;;;20.00;34.10;;;;;;6165768;28;20051;-53
2023/03/03 07:26:18;;;;;;;3.22;2.92;;;20.10;34.20;;;;;;6168759;28;20047;-54
2023/03/03 07:29:24;;;;;;;3.28;2.97;;;19.80;34.00;;;;;;6149276;29;20040;-54
2023/03/03 07:32:30;;;;;;;2.85;2.53;;;19.90;34.00;;;;;;6166872;29;20047;-53
2023/03/03 07:35:37;;;;;;;3.10;2.80;;;19.90;33.90;;;;;;6163595;28;20070;-53
2023/03/03 07:38:49;;;;;;;3.10;2.80;;;20.20;34.10;;;;;;6163278;28;20039;-53
2023/03/03 07:41:50;;;;;;;3.20;2.83;;;20.00;33.90;;;;;;6163523;28;20039;-53
2023/03/03 07:44:54;;;;;;;3.40;3.10;;;20.20;33.90;;;;;;6164930;29;20079;-52
2023/03/03 07:48:02;;;;;;;4.00;3.35;;;20.30;34.00;;;;;;6163698;29;20070;-53
2023/03/03 07:51:11;;;;;;;3.35;3.05;;;20.10;33.90;;;;;;6162452;28;20094;-52
2023/03/03 07:54:29;;;;;;;3.70;3.30;;;20.30;33.90;;;;;;6160567;29;20074;-53
2023/03/03 07:57:35;;;;;;;3.45;3.13;;;20.40;33.90;;;;;;6165226;28;20044;-53
2023/03/03 08:01:07;;;;;;;3.60;3.30;;;20.40;33.90;;;;;;6162950;29;20065;-50
2023/03/03 08:04:19;;;;;;;3.85;3.28;;;20.20;33.80;;;;;;6150369;29;20051;-52
2023/03/03 08:07:22;;;;;;;3.95;3.55;;;20.50;33.90;;;;;;6163088;29;20443;-53
2023/03/03 08:10:37;;;;;;;3.65;3.10;;;20.40;33.80;;;;;;6165921;28;20038;-54
2023/03/03 08:13:42;;;;;;;3.47;3.17;;;20.30;33.80;;;;;;6161740;29;20035;-53
2023/03/03 08:16:43;;;;;;;3.67;3.28;;;20.20;33.70;;;;;;6172141;28;20443;-52
2023/03/03 08:19:45;;;;;;;;;;;20.40;33.90;;;;;;6158728;29;20047;-51
2023/03/03 08:22:47;;;;;;;4.40;3.05;;;20.50;34.00;;;;;;6157108;28;19926;-52
2023/03/03 08:25:50;;;;;;;3.60;3.17;;;19.90;33.60;;;;;;6157617;29;20043;-53
2023/03/03 08:28:53;;;;;;;3.95;3.17;;;20.40;34.00;;;;;;6148331;29;20094;-51
2023/03/03 08:31:54;;;;;;;4.00;3.60;;;20.40;34.10;;;;;;6143305;29;20043;-55
2023/03/03 08:34:59;;;;;;;4.00;3.35;;;20.10;34.00;;;;;;6159610;28;20062;-53
2023/03/03 08:38:00;;;;;;;3.97;3.45;;;20.40;34.10;;;;;;6157559;29;20098;-51
2023/03/03 08:41:04;;;;;;;4.38;3.92;;;20.50;34.30;;;;;;6150878;29;20074;-55
2023/03/03 08:44:05;;;;;;;3.60;3.30;;;20.40;34.20;;;;;;6158052;29;20048;-53
2023/03/03 08:47:06;;;;;;;;;;;20.40;34.20;;;;;;6160426;28;20067;-53
2023/03/03 08:50:10;;;;;;;3.63;3.10;;;20.50;34.30;;;;;;6163094;28;19933;-54
2023/03/03 08:53:13;;;;;;;3.97;3.30;;;20.50;34.20;;;;;;6146869;29;20046;-50
2023/03/03 08:56:15;;;;;;;3.78;3.15;;;20.40;34.20;;;;;;6157778;29;20051;-53
2023/03/03 08:59:21;;;;;;;3.33;3.03;;;20.50;34.30;;;;;;6156940;28;20046;-52
2023/03/03 09:02:22;;;;;;;3.63;3.30;;;20.60;34.50;;;;;;6159747;29;20094;-55
2023/03/03 09:05:25;;;;;;;4.18;3.67;;;20.60;34.50;;;;;;6158989;28;20423;-55
2023/03/03 09:08:27;;;;;;;3.75;3.22;;;20.60;34.40;;;;;;6159532;29;20058;-55
2023/03/03 09:11:28;;;;;;;;;;;20.40;34.40;;;;;;6166290;28;20476;-54
2023/03/03 09:14:30;;;;;;;3.53;2.60;;;20.50;34.50;;;;;;6166288;28;19922;-53
2023/03/03 09:17:34;;;;;;;4.10;3.42;;;20.70;34.50;;;;;;6162575;29;20062;-52
2023/03/03 09:20:40;;;;;;;4.53;3.92;;;20.30;34.30;;;;;;6156113;29;20101;-51
2023/03/03 09:23:43;;;;;;;4.00;3.60;;;20.60;34.50;;;;;;6156959;28;20448;-51
2023/03/03 09:26:46;;;;;;;3.45;3.15;;;20.70;34.50;;;;;;6156419;29;20039;-51
2023/03/03 09:29:48;;;;;;;4.10;3.42;;;20.40;34.40;;;;;;6138300;29;20051;-53
2023/03/03 09:32:52;;;;;;;4.30;3.90;;;20.70;34.60;;;;;;6156000;28;20046;-54
2023/03/03 09:36:05;;;;;;;4.28;3.35;;;20.80;34.60;;;;;;6135041;29;20055;-52
2023/03/03 09:39:16;;;;;;;4.05;3.30;;;20.80;34.60;;;;;;6117364;29;20516;-51
2023/03/03 09:42:41;;;;;;;3.83;3.33;;;20.50;34.50;;;;;;6112879;29;20047;-51
2023/03/03 09:45:55;;;;;;;3.65;3.35;;;20.80;34.70;;;;;;6128303;29;20503;-54
2023/03/03 09:49:06;;;;;;;4.53;3.45;;;20.90;34.70;;;;;;6130467;29;20047;-52
2023/03/03 09:52:25;;;;;;;4.65;3.72;;;20.70;34.60;;;;;;6126727;29;20051;-53
2023/03/03 09:55:38;;;;;;;4.30;3.90;;;20.50;34.60;;;;;;6128491;29;20048;-53
2023/03/03 09:58:51;;;;;;;4.53;3.85;;;20.60;34.60;;;;;;6127548;29;20125;-52
2023/03/03 10:02:10;;;;;;;4.20;3.40;;;20.90;34.70;;;;;;6127897;29;20044;-53
2023/03/03 10:05:25;;;;;;;5.47;4.00;;;20.80;34.60;;;;;;6128715;29;20393;-53
2023/03/03 10:08:43;;;;;;;4.15;3.25;;;20.80;34.60;;;;;;6127485;29;20048;-52
2023/03/03 10:11:49;;;;;;;4.95;3.72;;;20.80;34.60;;;;;;6128132;29;20519;-51
2023/03/03 10:15:11;;;;;;;4.63;3.80;;;20.60;35.20;;;;;;6127542;29;20040;-53
2023/03/03 10:18:25;;;;;;;4.13;3.42;;;20.60;34.50;;;;;;6128055;29;20039;-53
2023/03/03 10:21:33;;;;;;;4.60;3.38;;;20.80;34.60;;;;;;6128161;29;20040;-53
2023/03/03 10:24:44;;;;;;;4.18;3.22;;;20.70;34.60;;;;;;6130306;29;20052;-53
2023/03/03 10:27:58;;;;;;;3.97;3.00;;;20.90;34.60;;;;;;6136007;29;20055;-50
2023/03/03 10:31:12;;;;;;;4.30;3.22;;;20.90;34.60;;;;;;6132422;29;20051;-51
2023/03/03 10:34:30;;;;;;;3.22;2.90;;;21.00;34.70;;;;;;6127710;29;20476;-53
2023/03/03 10:37:50;;;;;;;3.08;2.63;;;21.00;34.70;;;;;;6132903;29;20047;-48
2023/03/03 10:40:58;;;;;;;3.38;2.65;;;21.00;34.70;;;;;;6134163;29;20091;-50
2023/03/03 10:44:20;;;;;;;3.25;2.95;;;20.90;34.60;;;;;;6135600;29;20040;-52
2023/03/03 10:47:40;;;;;;;2.75;2.47;;;21.30;34.80;;;;;;6133764;29;20067;-55
2023/03/03 10:50:50;;;;;;;2.90;2.10;;;21.10;34.50;;;;;;6134598;29;20050;-50
2023/03/03 10:54:01;;;;;;;4.20;2.40;;;20.90;34.30;;;;;;6141351;29;20044;-49
2023/03/03 10:57:11;;;;;;;2.55;2.30;;;20.80;34.20;;;;;;6135147;29;20047;-49
2023/03/03 11:00:20;;;;;;;2.58;2.35;;;20.90;34.20;;;;;;6140270;29;20082;-53
2023/03/03 11:03:45;;;;;;;2.30;2.10;;;21.00;34.30;;;;;;6135015;29;20051;-54
2023/03/03 11:06:54;;;;;;;2.38;2.10;;;21.10;34.30;;;;;;6137657;29;20035;-53
2023/03/03 11:10:05;;;;;;;2.40;2.10;;;21.10;34.20;;;;;;6140213;29;20044;-49
2023/03/03 11:13:16;;;;;;;2.63;2.27;;;21.00;34.20;;;;;;6132791;29;20051;-52
2023/03/03 11:16:32;;;;;;;2.22;1.75;;;21.00;34.10;;;;;;6129976;29;20235;-52
2023/03/03 11:20:00;;;;;;;2.50;1.85;;;20.90;34.10;;;;;;6133372;29;20048;-51
2023/03/03 11:23:09;;;;;;;2.40;1.90;;;21.10;34.10;;;;;;6130497;29;20074;-53
2023/03/03 11:26:19;;;;;;;2.45;1.95;;;21.10;34.00;;;;;;6129769;29;20373;-54
2023/03/03 11:29:33;;;;;;;2.10;1.70;;;21.10;34.00;;;;;;6132663;29;20412;-48
2023/03/03 11:32:42;;;;;;;2.05;1.85;;;21.20;34.10;;;;;;6130685;29;20048;-53
2023/03/03 11:35:47;;;;;;;2.08;1.88;;;21.20;34.00;;;;;;6130543;29;20370;-55
2023/03/03 11:38:55;;;;;;;1.95;1.73;;;21.00;33.90;;;;;;6128335;29;20051;-55
2023/03/03 11:42:08;;;;;;;2.42;2.10;;;21.10;33.80;;;;;;6127246;29;20054;-54
2023/03/03 11:45:17;;;;;;;2.13;1.85;;;21.30;33.90;;;;;;6128641;29;20390;-55
2023/03/03 11:48:24;;;;;;;1.98;1.55;;;21.30;33.80;;;;;;6128164;29;20055;-53
2023/03/03 11:51:37;;;;;;;2.03;1.83;;;21.10;33.60;;;;;;6128723;29;20412;-52
2023/03/03 11:54:47;;;;;;;1.90;1.63;;;21.00;33.50;;;;;;6128315;29;20047;-52
2023/03/03 11:57:53;;;;;;;2.03;1.67;;;21.10;33.50;;;;;;6128272;29;20044;-52
2023/03/03 12:01:00;;;;;;;1.90;1.70;;;21.00;33.40;;;;;;6126819;29;20043;-50
2023/03/03 12:04:11;;;;;;;1.85;1.67;;;21.00;33.40;;;;;;6128469;29;20043;-52
2023/03/03 12:07:25;;;;;;;2.03;1.80;;;21.00;33.90;;;;;;6128262;29;20073;-46
2023/03/03 12:10:32;;;;;;;1.92;1.80;;;21.30;33.50;;;;;;6127948;29;20048;-46
2023/03/03 12:13:49;;;;;;;1.80;1.60;;;21.10;33.30;;;;;;6128175;29;20098;-47
2023/03/03 12:16:55;;;;;;;2.05;1.77;;;21.10;33.30;;;;;;6128046;29;20054;-46
2023/03/03 12:20:06;;;;;;;3.03;2.40;;;21.10;33.30;;;;;;6128119;29;20039;-52
2023/03/03 12:23:22;;;;;;;1.85;1.55;;;21.10;33.30;;;;;;6126390;29;20415;-52
2023/03/03 12:26:30;;;;;;;2.15;1.83;;;21.20;33.40;;;;;;6128035;29;20044;-52
2023/03/03 12:29:38;;;;;;;2.40;1.80;;;21.30;33.40;;;;;;6127558;29;20087;-52
2023/03/03 12:32:57;;;;;;;2.13;1.77;;;21.30;33.40;;;;;;6127367;29;20070;-51
2023/03/03 12:36:09;;;;;;;1.90;1.60;;;21.30;33.30;;;;;;6127823;29;20107;-53
2023/03/03 12:39:19;;;;;;;2.25;1.80;;;21.30;33.30;;;;;;6127499;29;20044;-52
2023/03/03 12:42:51;;;;;;;1.73;1.50;;;21.30;33.20;;;;;;6127295;29;20110;-52
2023/03/03 12:45:59;;;;;;;1.40;1.30;;;21.20;33.00;;;;;;6126845;29;20048;-52
2023/03/03 12:49:03;;;;;;;1.70;1.60;;;21.10;33.00;;;;;;6127433;29;20039;-52
2023/03/03 12:52:17;;;;;;;1.67;1.30;;;21.00;32.90;;;;;;6127145;29;20047;-52
2023/03/03 12:55:32;;;;;;;1.40;1.30;;;21.40;33.00;;;;;;6129008;29;20044;-51
2023/03/03 12:58:44;;;;;;;1.63;1.42;;;21.40;32.90;;;;;;6129208;29;20044;-49
2023/03/03 13:01:58;;;;;;;1.80;1.40;;;21.20;32.70;;;;;;6128714;29;20469;-54
2023/03/03 13:05:10;;;;;;;1.63;1.52;;;21.40;32.70;;;;;;6128287;29;20110;-50
2023/03/03 13:08:30;;;;;;;1.58;1.38;;;21.40;32.50;;;;;;6128075;29;20068;-46
2023/03/03 13:11:49;;;;;;;1.08;0.90;;;21.30;32.30;;;;;;6128079;29;20047;-52
2023/03/03 13:14:56;;;;;;;1.88;1.65;;;21.50;32.40;;;;;;6127867;29;20095;-54
2023/03/03 13:18:14;;;;;;;1.50;1.27;;;21.40;32.30;;;;;;6130377;29;20051;-51
2023/03/03 13:21:21;;;;;;;1.33;1.20;;;21.50;32.10;;;;;;6130913;29;20050;-53
2023/03/03 13:24:30;;;;;;;1.27;1.17;;;21.30;31.90;;;;;;6130401;29;20507;-50
2023/03/03 13:27:37;;;;;;;1.45;1.20;;;21.50;31.90;;;;;;6129855;29;20040;-52
2023/03/03 13:30:44;;;;;;;1.55;1.45;;;21.50;31.80;;;;;;6128532;29;20071;-52
2023/03/03 13:33:53;;;;;;;1.45;1.35;;;21.20;31.60;;;;;;6131460;29;20534;-53
2023/03/03 13:37:01;;;;;;;1.60;1.15;;;21.50;31.60;;;;;;6133952;29;20055;-53
2023/03/03 13:40:15;;;;;;;1.65;1.55;;;21.40;31.40;;;;;;6132118;29;20043;-53
2023/03/03 13:43:18;;;;;;;1.50;1.33;;;21.50;31.40;;;;;;6130288;29;20048;-54
2023/03/03 13:46:32;;;;;;;1.50;1.40;;;21.50;31.30;;;;;;6131377;29;20052;-53
2023/03/03 13:49:54;;;;;;;2.05;1.48;;;21.50;31.20;;;;;;6129647;29;20051;-56
2023/03/03 13:53:11;;;;;;;1.48;1.35;;;21.40;31.20;;;;;;6126407;29;20051;-55
2023/03/03 13:56:28;;;;;;;1.92;1.50;;;21.40;31.10;;;;;;6126559;29;20054;-54
2023/03/03 13:59:41;;;;;;;1.88;1.48;;;21.40;31.10;;;;;;6128394;29;20110;-51
2023/03/03 14:02:56;;;;;;;1.45;1.13;;;21.20;30.90;;;;;;6128991;29;20048;-51
2023/03/03 14:06:01;;;;;;;1.50;1.40;;;21.30;31.00;;;;;;6131207;29;20055;-53
2023/03/03 14:09:21;;;;;;;1.75;1.45;;;21.50;31.00;;;;;;6137970;29;20044;-50
2023/03/03 14:12:32;;;;;;;1.20;1.10;;;21.20;30.80;;;;;;6129925;29;20040;-52
2023/03/03 14:15:43;;;;;;;1.90;1.63;;;21.40;30.90;;;;;;6137815;29;20051;-55
2023/03/03 14:18:54;;;;;;;1.40;1.20;;;21.50;30.90;;;;;;6137246;29;20048;-56
2023/03/03 14:22:11;;;;;;;1.63;1.35;;;21.60;30.90;;;;;;6143091;29;20048;-50
2023/03/03 14:25:15;;;;;;;1.48;1.20;;;21.50;30.80;;;;;;6129956;29;20528;-47
2023/03/03 14:28:19;;;;;;;1.60;1.30;;;21.50;30.80;;;;;;6130130;29;20043;-51
2023/03/03 14:31:24;;;;;;;1.65;1.45;;;21.60;30.80;;;;;;6129881;29;20512;-54
2023/03/03 14:34:35;;;;;;;14.48;1.70;;;21.60;30.80;;;;;;6115005;29;20527;-55
2023/03/03 14:37:43;;;;;;;1.60;1.35;;;21.60;30.80;;;;;;6137277;29;20053;-52
2023/03/03 14:40:47;;;;;;;1.33;1.05;;;21.60;30.80;;;;;;6135775;29;20055;-53
2023/03/03 14:43:58;;;;;;;1.33;1.00;;;21.60;30.70;;;;;;6137580;29;20036;-52
2023/03/03 14:47:10;;;;;;;1.20;1.10;;;21.50;30.60;;;;;;6134911;29;20043;-55
2023/03/03 14:50:31;;;;;;;1.23;1.10;;;21.70;30.70;;;;;;6130375;29;20050;-55
2023/03/03 14:53:36;;;;;;;1.33;1.10;;;21.50;30.50;;;;;;6129265;29;20051;-55
2023/03/03 14:56:52;;;;;;;1.80;1.30;;;21.60;30.60;;;;;;6128519;29;20047;-55
2023/03/03 14:59:57;;;;;;;1.63;1.52;;;21.30;30.30;;;;;;6128849;29;20550;-55
2023/03/03 15:03:05;;;;;;;1.20;0.98;;;21.40;30.30;;;;;;6128207;29;20126;-55
2023/03/03 15:06:11;;;;;;;1.20;1.05;;;21.60;30.30;;;;;;6129227;29;20051;-53
2023/03/03 15:09:34;;;;;;;1.50;1.10;;;21.20;30.30;;;;;;6129926;29;20047;-52
2023/03/03 15:12:39;;;;;;;1.27;0.93;;;21.70;30.30;;;;;;6131923;29;20047;-54
2023/03/03 15:15:50;;;;;;;1.30;1.20;;;21.60;30.30;;;;;;6130413;29;20492;-50
2023/03/03 15:19:14;;;;;;;1.08;0.98;;;21.70;30.30;;;;;;6131362;29;20044;-54
2023/03/03 15:22:33;;;;;;;1.75;1.35;;;21.70;30.20;;;;;;6128469;29;20051;-54
2023/03/03 15:25:45;;;;;;;1.37;1.10;;;21.40;30.00;;;;;;6129278;29;20051;-55
2023/03/03 15:29:04;;;;;;;0.93;0.90;;;21.70;30.20;;;;;;6127580;29;20052;-54
2023/03/03 15:32:13;;;;;;;1.48;1.10;;;21.70;30.70;;;;;;6128778;29;20047;-55
2023/03/03 15:35:27;;;;;;;0.95;0.80;;;21.80;30.20;;;;;;6128902;29;20056;-52
2023/03/03 15:38:43;;;;;;;1.00;0.90;;;21.60;30.00;;;;;;6131429;29;20042;-51
2023/03/03 15:41:53;;;;;;;1.00;0.80;;;21.50;29.80;;;;;;6134273;29;20043;-53
2023/03/03 15:45:07;;;;;;;1.02;0.82;;;21.70;29.90;;;;;;6131467;29;20043;-53
2023/03/03 15:48:28;;;;;;;0.90;0.65;;;21.70;29.90;;;;;;6130085;29;20047;-55
2023/03/03 15:51:45;;;;;;;0.90;0.70;;;21.60;29.60;;;;;;6128782;29;20036;-55
2023/03/03 15:55:18;;;;;;;0.80;0.60;;;21.80;29.70;;;;;;6128582;29;20119;-56
2023/03/03 15:58:50;;;;;;;1.75;0.68;;;21.60;29.50;;;;;;6128606;29;20534;-54
2023/03/03 16:02:04;;;;;;;0.93;0.50;;;21.70;29.40;;;;;;6130640;29;20440;-54
2023/03/03 16:05:15;;;;;;;0.88;0.50;;;21.70;29.30;;;;;;6130303;29;20071;-56
2023/03/03 16:08:24;;;;;;;0.90;0.63;;;21.70;29.30;;;;;;6128264;29;20043;-54
2023/03/03 16:11:33;;;;;;;0.80;0.50;;;21.70;29.20;;;;;;6128745;29;20055;-55
2023/03/03 16:14:50;;;;;;;0.70;0.50;;;21.60;29.10;;;;;;6133196;29;20043;-55
2023/03/03 16:18:02;;;;;;;0.50;0.40;;;21.70;29.00;;;;;;6129502;29;20072;-54
2023/03/03 16:21:18;;;;;;;0.80;0.70;;;21.70;29.00;;;;;;6127615;29;20048;-55